createdAt,value
2023-11-19T00:07:41.654Z,0.37
2023-11-19T00:17:48.116Z,0.35
2023-11-19T00:27:52.213Z,0.39
2023-11-19T00:37:55.761Z,0.36
2023-11-19T00:47:59.413Z,0.37
2023-11-19T00:58:03.672Z,0.24
2023-11-19T01:08:07.122Z,0.12
2023-11-19T01:18:11.147Z,0.13
2023-11-19T01:28:14.698Z,0.26
2023-11-19T01:38:18.235Z,0.29
2023-11-19T01:48:21.496Z,0.28
2023-11-19T01:58:26.091Z,0.25
2023-11-19T02:08:30.203Z,0.13
2023-11-19T02:18:34.119Z,-0.01
2023-11-19T02:28:37.790Z,0.07
2023-11-19T02:38:41.128Z,0.16
2023-11-19T02:48:45.607Z,0.05
2023-11-19T02:58:50.111Z,-0.15
2023-11-19T03:08:53.960Z,-0.20
2023-11-19T03:18:57.610Z,-0.08
2023-11-19T03:29:01.984Z,0.02
2023-11-19T03:39:04.944Z,-0.07
2023-11-19T03:49:08.769Z,-0.27
2023-11-19T03:59:12.487Z,-0.48
2023-11-19T04:09:15.947Z,-0.57
2023-11-19T04:19:19.679Z,-0.52
2023-11-19T04:29:23.445Z,-0.44
2023-11-19T04:39:27.416Z,-0.42
2023-11-19T04:49:31.023Z,-0.54
2023-11-19T04:59:35.865Z,-0.58
2023-11-19T05:09:39.360Z,-0.52
2023-11-19T05:19:42.723Z,-0.39
2023-11-19T05:29:46.266Z,-0.37
2023-11-19T05:39:49.746Z,-0.42
2023-11-19T05:49:53.240Z,-0.41
2023-11-19T05:59:56.765Z,-0.30
2023-11-19T06:10:00.369Z,-0.19
2023-11-19T06:20:06.134Z,-0.23
2023-11-19T06:30:09.032Z,-0.24
2023-11-19T06:40:13.269Z,-0.16
2023-11-19T06:50:18.413Z,-0.09
2023-11-19T07:00:21.770Z,-0.10
2023-11-19T07:10:25.372Z,-0.00
2023-11-19T07:20:28.820Z,0.15
2023-11-19T07:30:31.774Z,0.23
2023-11-19T07:40:35.182Z,0.27
2023-11-19T07:50:38.946Z,0.42
2023-11-19T08:00:42.786Z,0.52
2023-11-19T08:10:48.302Z,0.59
2023-11-19T08:20:54.076Z,0.75
2023-11-19T08:30:59.439Z,0.81
2023-11-19T08:41:03.037Z,0.83
2023-11-19T08:51:07.230Z,1.01
2023-11-19T09:01:10.746Z,1.18
2023-11-19T09:11:14.304Z,1.33
2023-11-19T09:21:18.378Z,1.68
2023-11-19T09:31:21.779Z,1.98
2023-11-19T09:41:25.993Z,2.13
2023-11-19T09:51:29.626Z,2.39
2023-11-19T10:01:34.723Z,2.53
2023-11-19T10:11:38.519Z,2.37
2023-11-19T10:21:42.366Z,2.23
2023-11-19T10:31:56.557Z,2.11
2023-11-19T10:42:16.022Z,2.00
2023-11-19T10:52:18.436Z,1.79
2023-11-19T11:02:25.766Z,1.35
2023-11-19T11:12:31.134Z,1.07
2023-11-19T11:22:38.585Z,0.94
2023-11-19T11:32:51.777Z,0.90
2023-11-19T11:42:55.337Z,0.88
2023-11-19T11:53:15.027Z,0.86
2023-11-19T12:03:22.043Z,0.78
2023-11-19T12:13:30.216Z,0.72
2023-11-19T12:23:34.706Z,0.67
2023-11-19T12:33:38.437Z,0.71
2023-11-19T12:53:54.742Z,0.72
2023-11-19T13:03:59.468Z,0.74
2023-11-19T13:24:07.509Z,0.93
2023-11-19T13:34:10.684Z,1.00
2023-11-19T13:44:14.332Z,1.07
2023-11-19T13:54:20.191Z,1.13
2023-11-19T14:04:23.810Z,1.32
2023-11-19T14:14:27.557Z,1.38
2023-11-19T14:24:31.250Z,1.45
2023-11-19T14:34:34.796Z,1.49
2023-11-19T14:44:38.399Z,1.50
2023-11-19T14:54:41.846Z,1.44
2023-11-19T15:04:46.050Z,1.54
2023-11-19T15:14:48.745Z,1.66
2023-11-19T15:24:51.747Z,1.77
2023-11-19T15:34:55.731Z,1.86
2023-11-19T15:44:59.229Z,1.98
2023-11-19T15:55:03.666Z,2.09
2023-11-19T16:05:10.641Z,2.21
2023-11-19T16:15:15.833Z,2.33
2023-11-19T16:25:38.012Z,2.45
2023-11-19T16:35:41.782Z,2.53
2023-11-19T16:45:45.763Z,2.70
2023-11-19T16:55:49.435Z,2.87
2023-11-19T17:05:53.095Z,3.02
2023-11-19T17:15:56.874Z,3.15
2023-11-19T17:26:00.129Z,3.23
2023-11-19T17:36:06.840Z,3.25
2023-11-19T17:46:10.676Z,3.26
2023-11-19T17:56:15.592Z,3.30
2023-11-19T18:06:19.637Z,3.34
2023-11-19T18:16:24.266Z,3.40
2023-11-19T18:26:44.600Z,3.48
2023-11-19T18:36:48.718Z,3.56
2023-11-19T18:46:51.895Z,3.64
2023-11-19T18:56:55.798Z,3.75
2023-11-19T19:06:57.890Z,3.83
2023-11-19T19:17:01.367Z,3.85
2023-11-19T19:27:05.658Z,3.86
2023-11-19T19:37:10.553Z,3.86
2023-11-19T19:47:14.415Z,3.95
2023-11-19T19:57:18.045Z,4.05
2023-11-19T20:07:21.664Z,4.12
2023-11-19T20:17:25.233Z,4.19
2023-11-19T20:27:28.809Z,4.25
2023-11-19T20:37:32.520Z,4.31
2023-11-19T20:47:35.579Z,4.38
2023-11-19T20:57:38.903Z,4.45
2023-11-19T21:07:42.584Z,4.52
2023-11-19T21:17:46.073Z,4.53
2023-11-19T21:27:50.316Z,4.56
2023-11-19T21:37:53.680Z,4.57
2023-11-19T21:47:56.488Z,4.59
2023-11-19T21:57:59.260Z,4.60
2023-11-19T22:18:08.319Z,4.77
2023-11-19T22:28:11.149Z,4.84
2023-11-19T22:38:14.431Z,4.83
2023-11-19T22:58:35.452Z,4.84
2023-11-19T23:18:42.007Z,4.82
2023-11-19T23:28:46.858Z,4.80
2023-11-19T23:38:53.017Z,4.88
2023-11-19T23:49:00.005Z,4.98
2023-11-19T23:59:02.470Z,5.09
